createdAt,value
2023-02-05T00:00:39.481Z,80.44
2023-02-05T00:03:06.022Z,80.54
2023-02-05T00:05:33.230Z,80.78
2023-02-05T00:07:59.864Z,80.80
2023-02-05T00:10:26.320Z,81.29
2023-02-05T00:12:52.845Z,81.57
2023-02-05T00:15:19.417Z,81.72
2023-02-05T00:17:45.875Z,81.58
2023-02-05T00:20:12.424Z,82.06
2023-02-05T00:22:38.928Z,81.93
2023-02-05T00:25:05.909Z,81.88
2023-02-05T00:27:33.819Z,82.08
2023-02-05T00:30:00.334Z,82.65
2023-02-05T00:32:26.802Z,82.43
2023-02-05T00:34:53.276Z,82.57
2023-02-05T00:37:19.900Z,82.58
2023-02-05T00:39:46.353Z,82.89
2023-02-05T00:42:12.928Z,82.73
2023-02-05T00:44:39.418Z,82.84
2023-02-05T00:47:05.939Z,83.00
2023-02-05T00:49:32.412Z,83.26
2023-02-05T00:51:58.974Z,83.60
2023-02-05T00:54:25.458Z,83.31
2023-02-05T00:56:52.018Z,83.25
2023-02-05T00:59:18.485Z,83.42
2023-02-05T01:01:44.984Z,83.75
2023-02-05T01:04:11.486Z,83.39
2023-02-05T01:06:37.969Z,83.62
2023-02-05T01:09:04.437Z,83.89
2023-02-05T01:11:30.984Z,83.62
2023-02-05T01:13:57.449Z,83.64
2023-02-05T01:16:24.005Z,84.06
2023-02-05T01:18:50.597Z,83.74
2023-02-05T01:21:17.093Z,83.91
2023-02-05T01:23:44.104Z,84.12
2023-02-05T01:26:10.568Z,84.24
2023-02-05T01:28:37.058Z,84.17
2023-02-05T01:31:03.780Z,83.91
2023-02-05T01:33:30.334Z,83.91
2023-02-05T01:35:57.171Z,84.07
2023-02-05T01:38:23.668Z,83.92
2023-02-05T01:40:50.188Z,84.20
2023-02-05T01:43:18.204Z,84.25
2023-02-05T01:45:55.346Z,84.41
2023-02-05T01:48:27.995Z,84.34
2023-02-05T01:50:59.523Z,84.82
2023-02-05T01:53:31.600Z,84.68
2023-02-05T01:56:01.469Z,84.67
2023-02-05T01:58:32.082Z,84.69
2023-02-05T02:00:58.650Z,84.90
2023-02-05T02:03:30.445Z,85.07
2023-02-05T02:05:57.636Z,85.16
2023-02-05T02:08:24.686Z,85.41
2023-02-05T02:10:53.577Z,85.23
2023-02-05T02:13:22.159Z,85.52
2023-02-05T02:15:50.588Z,85.35
2023-02-05T02:18:28.748Z,85.44
2023-02-05T02:21:33.064Z,85.43
2023-02-05T02:24:21.549Z,85.54
2023-02-05T02:27:16.132Z,85.64
2023-02-05T02:29:54.058Z,85.81
2023-02-05T02:32:41.203Z,85.53
2023-02-05T02:35:22.604Z,85.72
2023-02-05T02:38:00.909Z,85.87
2023-02-05T02:40:36.188Z,86.31
2023-02-05T02:43:13.522Z,86.17
2023-02-05T02:45:49.656Z,86.32
2023-02-05T02:48:19.392Z,86.34
2023-02-05T02:50:49.041Z,86.06
2023-02-05T02:53:19.242Z,86.58
2023-02-05T02:55:49.143Z,86.12
2023-02-05T02:58:21.389Z,86.56
2023-02-05T03:00:49.132Z,86.69
2023-02-05T03:03:20.769Z,86.72
2023-02-05T03:05:50.202Z,86.87
2023-02-05T03:08:24.652Z,86.88
2023-02-05T03:10:59.172Z,86.82
2023-02-05T03:13:25.712Z,87.18
2023-02-05T03:15:52.295Z,87.05
2023-02-05T03:18:19.873Z,86.90
2023-02-05T03:21:12.589Z,87.38
2023-02-05T03:23:39.197Z,87.33
2023-02-05T03:26:05.710Z,87.58
2023-02-05T03:28:32.203Z,87.94
2023-02-05T03:31:16.530Z,88.05
2023-02-05T03:34:01.188Z,87.99
2023-02-05T03:36:48.791Z,88.15
2023-02-05T03:39:26.516Z,88.10
2023-02-05T03:41:59.288Z,88.19
2023-02-05T03:45:00.354Z,88.22
2023-02-05T03:47:35.046Z,88.41
2023-02-05T03:50:10.930Z,88.85
2023-02-05T03:52:43.991Z,89.02
2023-02-05T03:55:22.927Z,88.78
2023-02-05T03:58:11.453Z,89.32
2023-02-05T04:00:38.738Z,89.89
2023-02-05T04:03:05.334Z,90.46
2023-02-05T04:05:32.519Z,90.37
2023-02-05T04:07:59.202Z,91.40
2023-02-05T04:10:25.669Z,90.77
2023-02-05T04:12:52.171Z,91.26
2023-02-05T04:15:18.659Z,91.77
2023-02-05T04:17:45.112Z,91.36
2023-02-05T04:20:11.961Z,91.58
2023-02-05T04:22:38.483Z,91.74
2023-02-05T04:25:05.237Z,91.92
2023-02-05T04:27:31.714Z,91.91
2023-02-05T04:29:58.625Z,92.21
2023-02-05T04:32:25.173Z,92.34
2023-02-05T04:34:51.677Z,92.29
2023-02-05T04:37:18.270Z,92.81
2023-02-05T04:39:44.761Z,92.95
2023-02-05T04:42:11.262Z,92.95
2023-02-05T04:44:37.776Z,93.49
2023-02-05T04:47:04.339Z,93.52
2023-02-05T04:49:33.065Z,93.28
2023-02-05T04:52:00.094Z,92.77
2023-02-05T04:54:28.337Z,92.95
2023-02-05T04:56:54.806Z,92.93
2023-02-05T04:59:21.310Z,93.14
2023-02-05T05:01:47.784Z,93.16
2023-02-05T05:04:14.289Z,93.19
2023-02-05T05:06:40.764Z,93.39
2023-02-05T05:09:07.234Z,93.17
2023-02-05T05:11:34.158Z,93.38
2023-02-05T05:14:00.599Z,93.17
2023-02-05T05:16:27.306Z,93.34
2023-02-05T05:18:53.889Z,93.32
2023-02-05T05:21:20.394Z,92.99
2023-02-05T05:23:46.891Z,93.15
2023-02-05T05:26:13.512Z,93.50
2023-02-05T05:28:40.270Z,93.08
2023-02-05T05:31:13.186Z,93.55
2023-02-05T05:33:40.176Z,93.56
2023-02-05T05:36:07.474Z,93.46
2023-02-05T05:38:34.048Z,93.40
2023-02-05T05:41:19.385Z,93.41
2023-02-05T05:43:48.505Z,93.37
2023-02-05T05:46:22.006Z,93.46
2023-02-05T05:48:53.728Z,93.55
2023-02-05T05:51:20.749Z,93.45
2023-02-05T05:53:47.655Z,93.40
2023-02-05T05:56:14.618Z,93.61
2023-02-05T05:58:42.106Z,93.58
2023-02-05T06:01:09.402Z,93.89
2023-02-05T06:03:36.268Z,93.55
2023-02-05T06:06:08.193Z,93.63
2023-02-05T06:08:35.749Z,93.99
2023-02-05T06:11:02.258Z,94.08
2023-02-05T06:13:28.770Z,94.29
2023-02-05T06:15:56.192Z,93.70
2023-02-05T06:18:23.988Z,94.08
2023-02-05T06:20:50.860Z,93.97
2023-02-05T06:23:17.647Z,94.16
2023-02-05T06:25:46.994Z,93.70
2023-02-05T06:28:14.000Z,93.51
2023-02-05T06:30:40.512Z,93.82
2023-02-05T06:33:07.078Z,93.44
2023-02-05T06:35:33.905Z,93.84
2023-02-05T06:38:00.578Z,93.64
2023-02-05T06:40:28.183Z,93.60
2023-02-05T06:42:55.343Z,93.54
2023-02-05T06:45:22.305Z,93.81
2023-02-05T06:47:49.040Z,93.29
2023-02-05T06:50:15.966Z,93.37
2023-02-05T06:52:42.629Z,93.28
2023-02-05T06:55:09.178Z,92.93
2023-02-05T06:57:35.692Z,92.96
2023-02-05T07:00:02.173Z,93.32
2023-02-05T07:02:29.230Z,93.36
2023-02-05T07:04:55.777Z,92.95
2023-02-05T07:07:22.467Z,93.08
2023-02-05T07:09:51.240Z,92.94
2023-02-05T07:12:17.828Z,93.09
2023-02-05T07:14:44.492Z,92.81
2023-02-05T07:17:10.992Z,92.84
2023-02-05T07:19:38.129Z,93.02
2023-02-05T07:22:05.266Z,93.17
2023-02-05T07:24:32.284Z,93.09
2023-02-05T07:26:58.764Z,92.80
2023-02-05T07:29:25.360Z,92.88
2023-02-05T07:31:52.506Z,92.86
2023-02-05T07:34:19.454Z,92.87
2023-02-05T07:36:45.932Z,92.55
2023-02-05T07:39:12.441Z,92.50
2023-02-05T07:41:38.988Z,92.79
2023-02-05T07:44:05.951Z,92.91
2023-02-05T07:46:34.946Z,92.48
2023-02-05T07:49:01.659Z,92.32
2023-02-05T07:51:28.319Z,92.18
2023-02-05T07:53:55.565Z,91.94
2023-02-05T07:56:22.461Z,91.79
2023-02-05T07:58:49.286Z,91.74
2023-02-05T08:01:15.852Z,91.79
2023-02-05T08:03:42.455Z,91.87
2023-02-05T08:06:14.020Z,91.16
2023-02-05T08:08:40.567Z,91.75
2023-02-05T08:11:07.862Z,91.55
2023-02-05T08:13:34.469Z,91.40
2023-02-05T08:16:05.965Z,91.72
2023-02-05T08:18:32.594Z,92.14
2023-02-05T08:20:59.368Z,90.98
2023-02-05T08:23:26.177Z,91.28
2023-02-05T08:25:57.104Z,90.59
2023-02-05T08:28:28.022Z,89.88
2023-02-05T08:30:56.598Z,89.06
2023-02-05T08:33:24.091Z,89.80
2023-02-05T08:35:50.795Z,89.30
2023-02-05T08:38:17.674Z,88.44
2023-02-05T08:40:44.188Z,88.12
2023-02-05T08:43:10.864Z,88.90
2023-02-05T08:45:37.955Z,88.80
2023-02-05T08:48:04.676Z,89.39
2023-02-05T08:50:31.505Z,88.22
2023-02-05T08:52:58.016Z,88.89
2023-02-05T08:55:24.704Z,88.62
2023-02-05T08:57:51.505Z,89.08
2023-02-05T09:00:18.361Z,88.67
2023-02-05T09:02:45.428Z,87.72
2023-02-05T09:05:11.993Z,88.05
2023-02-05T09:07:39.788Z,88.08
2023-02-05T09:10:09.060Z,87.90
2023-02-05T09:12:35.669Z,88.25
2023-02-05T09:15:02.200Z,88.15
2023-02-05T09:17:28.807Z,88.66
2023-02-05T09:19:55.480Z,88.44
2023-02-05T09:22:21.995Z,89.11
2023-02-05T09:24:48.485Z,89.60
2023-02-05T09:27:15.096Z,90.14
2023-02-05T09:29:41.913Z,89.84
2023-02-05T09:32:08.515Z,89.47
2023-02-05T09:34:35.015Z,89.41
2023-02-05T09:37:01.568Z,89.27
2023-02-05T09:40:12.023Z,88.59
2023-02-05T09:42:39.986Z,88.52
2023-02-05T09:45:16.717Z,88.61
2023-02-05T09:47:59.438Z,88.34
2023-02-05T09:50:29.900Z,88.50
2023-02-05T09:53:11.874Z,88.31
2023-02-05T09:55:42.560Z,88.30
2023-02-05T09:58:16.360Z,87.74
2023-02-05T10:00:49.987Z,87.27
2023-02-05T10:03:29.863Z,87.13
2023-02-05T10:06:12.882Z,87.45
2023-02-05T10:08:58.452Z,87.38
2023-02-05T10:11:48.662Z,88.12
2023-02-05T10:14:27.749Z,87.93
2023-02-05T10:16:54.153Z,87.37
2023-02-05T10:19:43.578Z,86.74
2023-02-05T10:22:21.157Z,86.36
2023-02-05T10:24:54.481Z,86.48
2023-02-05T10:27:23.186Z,86.22
2023-02-05T10:30:14.318Z,85.90
2023-02-05T10:33:00.434Z,86.14
2023-02-05T10:35:51.590Z,85.96
2023-02-05T10:38:25.669Z,85.77
2023-02-05T10:41:00.377Z,85.92
2023-02-05T10:43:34.426Z,85.75
2023-02-05T10:46:01.933Z,85.66
2023-02-05T10:48:45.397Z,86.41
2023-02-05T10:51:16.670Z,85.96
2023-02-05T10:53:43.845Z,87.01
2023-02-05T10:56:18.635Z,86.56
2023-02-05T10:58:55.482Z,86.29
2023-02-05T11:01:38.665Z,86.38
2023-02-05T11:04:11.236Z,86.32
2023-02-05T11:06:41.977Z,87.13
2023-02-05T11:09:23.717Z,87.02
2023-02-05T11:11:56.014Z,87.67
2023-02-05T11:14:31.028Z,87.71
2023-02-05T11:16:58.209Z,87.77
2023-02-05T11:19:28.926Z,88.54
2023-02-05T11:21:58.089Z,89.26
2023-02-05T11:24:36.193Z,86.85
2023-02-05T11:27:27.849Z,87.64
2023-02-05T11:29:56.964Z,87.27
2023-02-05T11:32:35.143Z,87.67
2023-02-05T11:35:23.455Z,87.07
2023-02-05T11:38:01.437Z,87.38
2023-02-05T11:40:31.467Z,86.56
2023-02-05T11:43:02.659Z,86.06
2023-02-05T11:45:31.039Z,85.84
2023-02-05T11:48:01.024Z,85.45
2023-02-05T11:50:30.384Z,84.50
2023-02-05T11:53:08.186Z,84.48
2023-02-05T11:55:36.237Z,83.40
2023-02-05T11:58:06.305Z,83.39
2023-02-05T12:00:33.646Z,83.45
2023-02-05T12:03:07.661Z,82.32
2023-02-05T12:05:45.874Z,81.98
2023-02-05T12:08:34.984Z,82.52
2023-02-05T12:11:12.516Z,82.85
2023-02-05T12:13:54.094Z,83.65
2023-02-05T12:16:32.813Z,84.32
2023-02-05T12:19:02.527Z,84.51
2023-02-05T12:21:50.957Z,82.85
2023-02-05T12:24:23.505Z,82.75
2023-02-05T12:26:57.924Z,82.65
2023-02-05T12:30:03.951Z,81.04
2023-02-05T12:32:47.362Z,81.15
2023-02-05T12:35:28.935Z,81.13
2023-02-05T12:38:27.300Z,81.35
2023-02-05T12:41:26.676Z,80.13
2023-02-05T12:44:02.161Z,79.50
2023-02-05T12:47:01.533Z,79.33
2023-02-05T12:49:51.457Z,79.52
2023-02-05T12:52:35.375Z,80.09
2023-02-05T12:55:12.375Z,79.06
2023-02-05T12:57:44.377Z,78.06
2023-02-05T13:00:19.686Z,77.62
2023-02-05T13:03:20.215Z,77.74
2023-02-05T13:06:03.944Z,77.23
2023-02-05T13:08:42.722Z,77.33
2023-02-05T13:11:18.304Z,77.16
2023-02-05T13:14:03.741Z,77.06
2023-02-05T13:16:38.056Z,77.25
2023-02-05T13:19:22.295Z,76.28
2023-02-05T13:22:08.870Z,76.90
2023-02-05T13:25:04.511Z,77.03
2023-02-05T13:27:59.058Z,76.44
2023-02-05T13:30:36.740Z,76.64
2023-02-05T13:33:06.500Z,76.81
2023-02-05T13:35:43.751Z,76.46
2023-02-05T13:38:25.484Z,76.52
2023-02-05T13:41:03.020Z,75.85
2023-02-05T13:43:54.461Z,75.87
2023-02-05T13:46:49.062Z,76.49
2023-02-05T13:49:30.266Z,76.20
2023-02-05T13:52:12.117Z,76.62
2023-02-05T13:54:38.585Z,76.81
2023-02-05T13:57:37.666Z,76.15
2023-02-05T14:00:08.910Z,75.96
2023-02-05T14:02:45.793Z,75.93
2023-02-05T14:05:14.008Z,76.21
2023-02-05T14:07:47.689Z,76.74
2023-02-05T14:10:30.267Z,77.18
2023-02-05T14:13:22.884Z,78.10
2023-02-05T14:15:49.987Z,78.42
2023-02-05T14:18:41.821Z,78.63
2023-02-05T14:21:46.711Z,77.67
2023-02-05T14:24:49.585Z,76.51
2023-02-05T14:27:38.661Z,76.58
2023-02-05T14:30:30.449Z,75.84
2023-02-05T14:33:02.680Z,75.68
2023-02-05T14:35:40.301Z,74.81
2023-02-05T14:38:28.979Z,74.68
2023-02-05T14:41:05.822Z,74.78
2023-02-05T14:43:36.046Z,74.35
2023-02-05T14:46:07.301Z,73.97
2023-02-05T14:48:46.809Z,73.66
2023-02-05T14:51:54.657Z,73.69
2023-02-05T14:54:24.103Z,72.27
2023-02-05T14:56:54.112Z,71.98
2023-02-05T14:59:32.224Z,72.08
2023-02-05T15:02:00.060Z,72.06
2023-02-05T15:04:40.275Z,71.91
2023-02-05T15:07:18.469Z,72.15
2023-02-05T15:09:51.978Z,73.14
2023-02-05T15:12:42.718Z,72.75
2023-02-05T15:15:28.753Z,73.33
2023-02-05T15:18:00.372Z,73.57
2023-02-05T15:20:32.542Z,72.88
2023-02-05T15:23:18.404Z,72.98
2023-02-05T15:25:56.120Z,73.31
2023-02-05T15:28:36.710Z,74.00
2023-02-05T15:31:16.468Z,73.33
2023-02-05T15:34:09.673Z,73.63
2023-02-05T15:36:45.871Z,73.62
2023-02-05T15:39:34.508Z,72.99
2023-02-05T15:42:04.103Z,72.69
2023-02-05T15:44:33.987Z,72.61
2023-02-05T15:47:03.757Z,72.48
2023-02-05T15:49:36.100Z,72.07
2023-02-05T15:52:03.541Z,71.74
2023-02-05T15:54:33.694Z,71.55
2023-02-05T15:57:00.374Z,71.31
2023-02-05T15:59:29.337Z,70.76
2023-02-05T16:02:18.081Z,70.14
2023-02-05T16:04:45.434Z,70.32
2023-02-05T16:07:24.408Z,70.23
2023-02-05T16:09:54.445Z,69.45
2023-02-05T16:12:21.379Z,68.71
2023-02-05T16:15:07.701Z,69.38
2023-02-05T16:17:42.309Z,68.24
2023-02-05T16:20:21.432Z,67.89
2023-02-05T16:22:56.921Z,67.54
2023-02-05T16:25:52.156Z,67.65
2023-02-05T16:28:24.649Z,67.41
2023-02-05T16:30:55.566Z,68.11
2023-02-05T16:33:32.363Z,66.56
2023-02-05T16:36:02.081Z,66.69
2023-02-05T16:38:29.262Z,66.73
2023-02-05T16:40:59.019Z,66.54
2023-02-05T16:43:25.462Z,66.78
2023-02-05T16:46:15.703Z,66.80
2023-02-05T16:48:45.374Z,67.16
2023-02-05T16:51:52.284Z,66.71
2023-02-05T16:54:18.852Z,67.20
2023-02-05T16:56:58.849Z,67.61
2023-02-05T16:59:30.665Z,67.73
2023-02-05T17:01:59.498Z,67.10
2023-02-05T17:04:34.938Z,66.93
2023-02-05T17:07:03.578Z,67.60
2023-02-05T17:09:39.096Z,67.58
2023-02-05T17:12:33.591Z,67.94
2023-02-05T17:15:02.965Z,67.82
2023-02-05T17:17:31.427Z,67.74
2023-02-05T17:20:17.982Z,68.14
2023-02-05T17:23:05.503Z,67.72
2023-02-05T17:26:01.490Z,68.24
2023-02-05T17:28:29.889Z,68.56
2023-02-05T17:31:00.265Z,69.11
2023-02-05T17:33:28.848Z,69.05
2023-02-05T17:35:55.718Z,68.98
2023-02-05T17:38:23.573Z,69.20
2023-02-05T17:40:50.424Z,69.83
2023-02-05T17:43:16.972Z,69.87
2023-02-05T17:45:44.480Z,69.88
2023-02-05T17:48:11.625Z,68.84
2023-02-05T17:50:38.449Z,69.07
2023-02-05T17:53:05.029Z,68.93
2023-02-05T17:55:32.130Z,67.99
2023-02-05T17:57:59.214Z,68.32
2023-02-05T18:00:28.263Z,68.39
2023-02-05T18:02:55.015Z,68.14
2023-02-05T18:05:22.974Z,68.45
2023-02-05T18:07:53.099Z,68.73
2023-02-05T18:10:23.990Z,68.82
2023-02-05T18:12:51.352Z,68.89
2023-02-05T18:15:17.934Z,69.07
2023-02-05T18:17:44.647Z,69.17
2023-02-05T18:20:13.014Z,69.22
2023-02-05T18:22:39.738Z,69.04
2023-02-05T18:25:06.829Z,69.40
2023-02-05T18:27:33.875Z,69.78
2023-02-05T18:30:00.404Z,69.79
2023-02-05T18:32:27.061Z,69.66
2023-02-05T18:34:54.020Z,69.74
2023-02-05T18:37:20.539Z,70.16
2023-02-05T18:39:47.976Z,69.81
2023-02-05T18:42:14.696Z,70.45
2023-02-05T18:44:41.334Z,70.54
2023-02-05T18:47:08.486Z,70.69
2023-02-05T18:49:35.155Z,70.38
2023-02-05T18:52:05.710Z,70.77
2023-02-05T18:54:32.177Z,70.60
2023-02-05T18:56:58.830Z,70.30
2023-02-05T18:59:25.906Z,70.68
2023-02-05T19:01:53.046Z,70.55
2023-02-05T19:04:20.811Z,71.12
2023-02-05T19:06:52.388Z,71.04
2023-02-05T19:09:24.927Z,71.05
2023-02-05T19:11:52.474Z,71.18
2023-02-05T19:14:20.748Z,70.99
2023-02-05T19:16:48.580Z,71.95
2023-02-05T19:19:20.071Z,71.66
2023-02-05T19:21:49.046Z,71.71
2023-02-05T19:24:17.334Z,71.84
2023-02-05T19:26:44.261Z,71.83
2023-02-05T19:29:16.551Z,72.30
2023-02-05T19:31:43.981Z,72.40
2023-02-05T19:34:11.468Z,72.22
2023-02-05T19:36:38.145Z,72.59
2023-02-05T19:39:06.892Z,72.54
2023-02-05T19:41:35.100Z,72.35
2023-02-05T19:44:04.642Z,72.27
2023-02-05T19:46:42.128Z,72.13
2023-02-05T19:49:13.761Z,72.06
2023-02-05T19:51:40.395Z,72.49
2023-02-05T19:54:08.075Z,72.17
2023-02-05T19:56:37.908Z,72.68
2023-02-05T19:59:06.369Z,72.49
2023-02-05T20:01:36.756Z,72.72
2023-02-05T20:04:10.731Z,72.64
2023-02-05T20:06:37.905Z,72.86
2023-02-05T20:09:10.344Z,73.16
2023-02-05T20:11:41.684Z,73.23
2023-02-05T20:14:09.266Z,73.26
2023-02-05T20:16:36.253Z,73.35
2023-02-05T20:19:03.068Z,73.25
2023-02-05T20:21:30.086Z,73.65
2023-02-05T20:23:56.881Z,73.66
2023-02-05T20:26:24.550Z,73.37
2023-02-05T20:29:12.288Z,73.61
2023-02-05T20:31:44.489Z,73.83
2023-02-05T20:34:17.979Z,73.83
2023-02-05T20:36:46.876Z,74.31
2023-02-05T20:39:13.492Z,74.22
2023-02-05T20:41:40.190Z,74.20
2023-02-05T20:44:06.660Z,74.25
2023-02-05T20:46:33.231Z,74.34
2023-02-05T20:49:00.577Z,74.99
2023-02-05T20:51:27.710Z,74.90
2023-02-05T20:53:58.623Z,75.05
2023-02-05T20:56:27.236Z,75.24
2023-02-05T20:58:54.634Z,75.60
2023-02-05T21:01:24.157Z,75.41
2023-02-05T21:03:57.778Z,75.52
2023-02-05T21:06:25.230Z,75.72
2023-02-05T21:08:52.974Z,75.58
2023-02-05T21:11:20.832Z,75.48
2023-02-05T21:13:49.361Z,75.52
2023-02-05T21:16:17.529Z,75.05
2023-02-05T21:18:45.626Z,75.54
2023-02-05T21:21:15.141Z,75.74
2023-02-05T21:23:44.173Z,75.77
2023-02-05T21:26:22.501Z,75.59
2023-02-05T21:28:52.328Z,75.69
2023-02-05T21:31:18.916Z,75.58
2023-02-05T21:33:45.672Z,75.81
2023-02-05T21:36:12.580Z,75.79
2023-02-05T21:38:41.428Z,75.90
2023-02-05T21:41:18.479Z,76.09
2023-02-05T21:43:53.545Z,76.45
2023-02-05T21:46:24.187Z,76.66
2023-02-05T21:48:53.031Z,76.43
2023-02-05T21:51:20.837Z,76.49
2023-02-05T21:53:47.960Z,76.49
2023-02-05T21:56:16.610Z,76.75
2023-02-05T21:58:43.339Z,77.07
2023-02-05T22:01:25.294Z,77.03
2023-02-05T22:03:57.422Z,76.84
2023-02-05T22:06:25.648Z,77.71
2023-02-05T22:08:52.678Z,77.32
2023-02-05T22:11:21.207Z,77.59
2023-02-05T22:13:49.883Z,77.60
2023-02-05T22:16:21.426Z,77.73
2023-02-05T22:18:48.640Z,77.84
2023-02-05T22:21:18.546Z,77.49
2023-02-05T22:23:49.190Z,77.24
2023-02-05T22:26:21.064Z,77.41
2023-02-05T22:28:48.075Z,77.70
2023-02-05T22:31:17.200Z,77.51
2023-02-05T22:33:45.606Z,77.61
2023-02-05T22:36:14.909Z,77.67
2023-02-05T22:38:42.894Z,78.04
2023-02-05T22:41:11.677Z,78.11
2023-02-05T22:43:38.515Z,78.25
2023-02-05T22:46:11.048Z,78.57
2023-02-05T22:48:39.576Z,78.22
2023-02-05T22:51:09.033Z,78.48
2023-02-05T22:53:35.841Z,78.75
2023-02-05T22:56:04.249Z,79.12
2023-02-05T22:58:31.334Z,79.36
2023-02-05T23:00:58.619Z,79.31
2023-02-05T23:03:25.795Z,79.72
2023-02-05T23:05:52.989Z,79.40
2023-02-05T23:08:21.813Z,80.16
2023-02-05T23:10:49.013Z,79.79
2023-02-05T23:13:18.073Z,79.94
2023-02-05T23:15:44.521Z,80.07
2023-02-05T23:18:11.042Z,79.97
2023-02-05T23:20:40.971Z,80.46
2023-02-05T23:23:07.429Z,80.44
2023-02-05T23:25:36.515Z,80.78
2023-02-05T23:28:03.324Z,80.77
2023-02-05T23:30:29.981Z,80.45
2023-02-05T23:32:56.535Z,80.83
2023-02-05T23:35:22.996Z,80.50
2023-02-05T23:37:49.489Z,80.95
2023-02-05T23:40:16.030Z,80.81
2023-02-05T23:42:42.475Z,81.40
2023-02-05T23:45:09.196Z,81.07
2023-02-05T23:47:35.719Z,80.74
2023-02-05T23:50:02.162Z,80.99
2023-02-05T23:52:28.625Z,81.17
2023-02-05T23:54:55.073Z,80.62
2023-02-05T23:57:21.531Z,81.31
2023-02-05T23:59:50.275Z,81.50
